Terminal Aerodrome Forecast
Issued by NWS Spokane, WA

Home | Current Version | Previous Version | Text Only | Print | Product List | Glossary On
Versions: 1 2 3 4 5 6 7 8 9 10 11 12 13 14 15 16 17 18 19 20 21 22 23 24 25 26 27 28 29 30 31 32 33 34 35 36 37 38 39 40 41 42 43 44 45
000
FTUS46 KOTX 201739
TAFEAT
TAF
KEAT 201739Z 2018/2118 VRB03KT P6SM -SHRA SCT050 OVC070
     FM210100 30006KT P6SM VCSH SCT050 BKN100
     FM210400 31004KT P6SM SCT080=

USA.gov is the U.S. government's official web portal to all federal, state and local government web resources and services.